createdAt,value
2023-02-02T00:00:45.420Z,6.03
2023-02-02T00:02:46.911Z,6.02
2023-02-02T00:04:48.412Z,6.00
2023-02-02T00:06:50.266Z,6.01
2023-02-02T00:08:52.254Z,6.05
2023-02-02T00:10:53.704Z,6.06
2023-02-02T00:12:57.973Z,6.04
2023-02-02T00:14:59.550Z,6.05
2023-02-02T00:17:01.040Z,6.04
2023-02-02T00:19:10.337Z,6.01
2023-02-02T00:21:11.792Z,6.02
2023-02-02T00:23:13.227Z,6.00
2023-02-02T00:25:14.691Z,5.95
2023-02-02T00:27:16.153Z,5.94
2023-02-02T00:29:23.903Z,5.95
2023-02-02T00:31:25.478Z,5.95
2023-02-02T00:33:26.967Z,5.96
2023-02-02T00:35:28.446Z,5.98
2023-02-02T00:37:29.887Z,5.98
2023-02-02T00:39:31.365Z,5.99
2023-02-02T00:41:32.833Z,6.02
2023-02-02T00:43:34.627Z,6.04
2023-02-02T00:45:36.781Z,6.06
2023-02-02T00:47:38.246Z,6.06
2023-02-02T00:49:39.732Z,6.05
2023-02-02T00:51:41.207Z,6.03
2023-02-02T00:53:42.650Z,6.01
2023-02-02T00:55:44.380Z,5.95
2023-02-02T00:57:46.239Z,5.86
2023-02-02T00:59:47.669Z,5.79
2023-02-02T01:01:49.182Z,5.74
2023-02-02T01:03:50.799Z,5.73
2023-02-02T01:05:52.313Z,5.70
2023-02-02T01:07:53.790Z,5.62
2023-02-02T01:09:55.244Z,5.52
2023-02-02T01:11:57.254Z,5.46
2023-02-02T01:13:58.719Z,5.42
2023-02-02T01:16:02.037Z,5.37
2023-02-02T01:18:03.625Z,5.31
2023-02-02T01:20:07.006Z,5.24
2023-02-02T01:22:09.261Z,5.18
2023-02-02T01:24:10.683Z,5.13
2023-02-02T01:26:13.552Z,5.09
2023-02-02T01:28:15.010Z,5.07
2023-02-02T01:30:16.550Z,5.06
2023-02-02T01:32:18.078Z,5.08
2023-02-02T01:34:19.640Z,5.10
2023-02-02T01:36:23.214Z,5.09
2023-02-02T01:38:25.129Z,5.09
2023-02-02T01:40:26.672Z,5.11
2023-02-02T01:42:28.223Z,5.12
2023-02-02T01:44:53.211Z,5.16
2023-02-02T01:46:54.663Z,5.16
2023-02-02T01:49:11.110Z,5.19
2023-02-02T01:51:17.319Z,5.20
2023-02-02T01:53:19.966Z,5.21
2023-02-02T01:55:25.151Z,5.24
2023-02-02T01:57:42.271Z,5.24
2023-02-02T01:59:46.467Z,5.24
2023-02-02T02:01:49.216Z,5.23
2023-02-02T02:03:50.717Z,5.22
2023-02-02T02:06:00.489Z,5.21
2023-02-02T02:08:13.646Z,5.21
2023-02-02T02:10:17.638Z,5.20
2023-02-02T02:12:19.070Z,5.18
2023-02-02T02:14:40.284Z,5.15
2023-02-02T02:16:47.270Z,5.16
2023-02-02T02:18:57.107Z,5.14
2023-02-02T02:21:35.383Z,5.14
2023-02-02T02:24:31.733Z,5.11
2023-02-02T02:26:35.985Z,5.09
2023-02-02T02:29:04.980Z,5.07
2023-02-02T02:31:44.103Z,5.03
2023-02-02T02:34:09.662Z,5.03
2023-02-02T02:36:20.791Z,5.04
2023-02-02T02:38:47.775Z,5.05
2023-02-02T02:40:58.107Z,5.06
2023-02-02T02:43:05.281Z,5.04
2023-02-02T02:45:08.381Z,5.02
2023-02-02T02:47:10.613Z,5.00
2023-02-02T02:49:13.719Z,4.99
2023-02-02T02:51:40.033Z,4.98
2023-02-02T02:53:41.572Z,4.96
2023-02-02T02:55:53.423Z,4.96
2023-02-02T02:58:16.371Z,4.97
2023-02-02T03:00:32.419Z,4.96
2023-02-02T03:02:45.668Z,4.94
2023-02-02T03:05:02.875Z,4.93
2023-02-02T03:07:10.398Z,4.91
2023-02-02T03:09:18.136Z,4.91
2023-02-02T03:11:20.663Z,4.88
2023-02-02T03:13:22.510Z,4.89
2023-02-02T03:15:24.709Z,4.89
2023-02-02T03:17:28.072Z,4.88
2023-02-02T03:19:29.555Z,4.85
2023-02-02T03:21:32.232Z,4.83
2023-02-02T03:23:34.406Z,4.82
2023-02-02T03:25:35.987Z,4.78
2023-02-02T03:27:38.950Z,4.77
2023-02-02T03:29:40.405Z,4.74
2023-02-02T03:31:42.009Z,4.71
2023-02-02T03:33:43.744Z,4.68
2023-02-02T03:35:45.294Z,4.65
2023-02-02T03:37:47.511Z,4.64
2023-02-02T03:39:49.016Z,4.59
2023-02-02T03:41:50.462Z,4.54
2023-02-02T03:43:51.895Z,4.49
2023-02-02T03:46:01.765Z,4.48
2023-02-02T03:48:05.475Z,4.45
2023-02-02T03:50:09.832Z,4.41
2023-02-02T03:52:11.440Z,4.37
2023-02-02T03:54:13.862Z,4.36
2023-02-02T03:56:16.121Z,4.33
2023-02-02T03:58:17.680Z,4.34
2023-02-02T04:00:19.512Z,4.35
2023-02-02T04:02:21.007Z,4.37
2023-02-02T04:04:22.519Z,4.36
2023-02-02T04:06:24.733Z,4.37
2023-02-02T04:08:26.311Z,4.36
2023-02-02T04:10:27.826Z,4.35
2023-02-02T04:12:29.274Z,4.31
2023-02-02T04:14:30.752Z,4.31
2023-02-02T04:16:34.891Z,4.28
2023-02-02T04:18:39.241Z,4.27
2023-02-02T04:20:40.707Z,4.25
2023-02-02T04:22:42.168Z,4.23
2023-02-02T04:24:43.642Z,4.23
2023-02-02T04:26:45.522Z,4.22
2023-02-02T04:28:47.003Z,4.22
2023-02-02T04:30:48.445Z,4.23
2023-02-02T04:32:51.390Z,4.21
2023-02-02T04:34:52.872Z,4.21
2023-02-02T04:36:54.321Z,4.17
2023-02-02T04:38:55.929Z,4.15
2023-02-02T04:40:57.395Z,4.14
2023-02-02T04:42:58.883Z,4.13
2023-02-02T04:45:00.318Z,4.12
2023-02-02T04:47:01.790Z,4.09
2023-02-02T04:49:03.267Z,4.08
2023-02-02T04:51:07.204Z,4.10
2023-02-02T04:53:08.652Z,4.10
2023-02-02T04:55:10.115Z,4.12
2023-02-02T04:57:11.579Z,4.10
2023-02-02T04:59:13.058Z,4.09
2023-02-02T05:01:20.792Z,4.11
2023-02-02T05:03:22.292Z,4.11
2023-02-02T05:05:24.031Z,4.12
2023-02-02T05:07:25.663Z,4.13
2023-02-02T05:09:27.243Z,4.13
2023-02-02T05:11:28.733Z,4.15
2023-02-02T05:13:30.189Z,4.15
2023-02-02T05:15:31.641Z,4.16
2023-02-02T05:17:33.374Z,4.14
2023-02-02T05:19:34.884Z,4.16
2023-02-02T05:21:36.331Z,4.15
2023-02-02T05:23:37.797Z,4.13
2023-02-02T05:25:39.242Z,4.14
2023-02-02T05:27:44.111Z,4.14
2023-02-02T05:29:47.321Z,4.15
2023-02-02T05:31:48.810Z,4.15
2023-02-02T05:33:50.302Z,4.17
2023-02-02T05:35:52.793Z,4.15
2023-02-02T05:37:54.249Z,4.15
2023-02-02T05:39:55.747Z,4.14
2023-02-02T05:41:57.175Z,4.16
2023-02-02T05:44:02.168Z,4.19
2023-02-02T05:46:03.778Z,4.20
2023-02-02T05:48:05.432Z,4.20
2023-02-02T05:50:07.237Z,4.19
2023-02-02T05:52:16.091Z,4.19
2023-02-02T05:54:20.451Z,4.18
2023-02-02T05:56:21.974Z,4.16
2023-02-02T05:58:23.737Z,4.19
2023-02-02T06:00:25.193Z,4.21
2023-02-02T06:02:26.756Z,4.20
2023-02-02T06:04:28.317Z,4.20
2023-02-02T06:06:29.752Z,4.21
2023-02-02T06:08:31.222Z,4.22
2023-02-02T06:10:32.700Z,4.23
2023-02-02T06:12:34.219Z,4.23
2023-02-02T06:14:35.876Z,4.26
2023-02-02T06:16:37.507Z,4.27
2023-02-02T06:18:39.105Z,4.26
2023-02-02T06:20:40.611Z,4.27
2023-02-02T06:22:43.832Z,4.27
2023-02-02T06:24:45.387Z,4.28
2023-02-02T06:26:46.895Z,4.30
2023-02-02T06:28:52.704Z,4.29
2023-02-02T06:30:54.278Z,4.31
2023-02-02T06:32:55.860Z,4.34
2023-02-02T06:34:57.323Z,4.40
2023-02-02T06:36:58.772Z,4.43
2023-02-02T06:39:00.325Z,4.45
2023-02-02T06:41:02.625Z,4.45
2023-02-02T06:43:04.302Z,4.42
2023-02-02T06:45:06.133Z,4.43
2023-02-02T06:47:07.648Z,4.45
2023-02-02T06:49:09.172Z,4.47
2023-02-02T06:51:10.649Z,4.47
2023-02-02T06:53:12.101Z,4.48
2023-02-02T06:55:13.674Z,4.46
2023-02-02T06:57:15.116Z,4.45
2023-02-02T06:59:16.615Z,4.43
2023-02-02T07:01:18.204Z,4.43
2023-02-02T07:03:21.444Z,4.43
2023-02-02T07:05:24.350Z,4.43
2023-02-02T07:07:26.114Z,4.42
2023-02-02T07:09:27.607Z,4.42
2023-02-02T07:11:29.609Z,4.40
2023-02-02T07:13:31.755Z,4.44
2023-02-02T07:15:34.336Z,4.44
2023-02-02T07:17:35.842Z,4.41
2023-02-02T07:19:37.354Z,4.41
2023-02-02T07:21:38.857Z,4.41
2023-02-02T07:23:40.341Z,4.42
2023-02-02T07:25:43.837Z,4.41
2023-02-02T07:27:47.808Z,4.41
2023-02-02T07:29:49.311Z,4.45
2023-02-02T07:31:51.291Z,4.47
2023-02-02T07:33:53.844Z,4.48
2023-02-02T07:35:55.370Z,4.50
2023-02-02T07:37:57.378Z,4.52
2023-02-02T07:39:58.888Z,4.51
2023-02-02T07:42:00.379Z,4.55
2023-02-02T07:44:01.965Z,4.56
2023-02-02T07:46:06.576Z,4.58
2023-02-02T07:48:08.113Z,4.58
2023-02-02T07:50:10.148Z,4.60
2023-02-02T07:52:11.659Z,4.61
2023-02-02T07:54:13.302Z,4.61
2023-02-02T07:56:17.243Z,4.63
2023-02-02T07:58:18.760Z,4.64
2023-02-02T08:00:20.779Z,4.66
2023-02-02T08:02:22.230Z,4.68
2023-02-02T08:04:23.695Z,4.69
2023-02-02T08:06:34.105Z,4.67
2023-02-02T08:08:35.591Z,4.68
2023-02-02T08:10:37.097Z,4.68
2023-02-02T08:12:38.579Z,4.71
2023-02-02T08:14:40.068Z,4.73
2023-02-02T08:16:41.580Z,4.74
2023-02-02T08:18:43.951Z,4.76
2023-02-02T08:20:45.487Z,4.78
2023-02-02T08:22:46.950Z,4.81
2023-02-02T08:24:48.490Z,4.82
2023-02-02T08:26:50.087Z,4.85
2023-02-02T08:29:03.969Z,4.86
2023-02-02T08:31:11.563Z,4.90
2023-02-02T08:33:13.549Z,4.93
2023-02-02T08:35:15.050Z,4.94
2023-02-02T08:37:16.515Z,4.95
2023-02-02T08:39:17.982Z,4.95
2023-02-02T08:41:22.683Z,4.97
2023-02-02T08:43:24.236Z,4.99
2023-02-02T08:46:03.874Z,5.00
2023-02-02T08:47:49.253Z,5.03
2023-02-02T08:49:55.341Z,5.04
2023-02-02T08:51:56.837Z,5.06
2023-02-02T08:53:58.339Z,5.09
2023-02-02T08:56:06.646Z,5.12
2023-02-02T08:58:08.171Z,5.15
2023-02-02T09:00:11.700Z,5.17
2023-02-02T09:02:13.878Z,5.20
2023-02-02T09:04:18.441Z,5.22
2023-02-02T09:06:21.211Z,5.23
2023-02-02T09:08:22.689Z,5.26
2023-02-02T09:10:24.179Z,5.30
2023-02-02T09:12:25.757Z,5.34
2023-02-02T09:14:27.400Z,5.34
2023-02-02T09:16:30.063Z,5.39
2023-02-02T09:18:31.693Z,5.40
2023-02-02T09:20:33.360Z,5.43
2023-02-02T09:22:34.991Z,5.44
2023-02-02T09:24:36.543Z,5.46
2023-02-02T09:26:40.558Z,5.47
2023-02-02T09:28:45.196Z,5.48
2023-02-02T09:30:46.676Z,5.50
2023-02-02T09:32:51.279Z,5.53
2023-02-02T09:34:52.765Z,5.56
2023-02-02T09:36:54.364Z,5.59
2023-02-02T09:38:55.933Z,5.59
2023-02-02T09:40:57.401Z,5.63
2023-02-02T09:43:18.030Z,5.67
2023-02-02T09:45:36.314Z,5.68
2023-02-02T09:48:20.203Z,5.71
2023-02-02T09:50:40.881Z,5.73
2023-02-02T09:53:08.027Z,5.76
2023-02-02T09:55:25.278Z,5.78
2023-02-02T09:57:36.701Z,5.82
2023-02-02T09:59:41.567Z,5.82
2023-02-02T10:01:45.144Z,5.84
2023-02-02T10:04:15.624Z,5.88
2023-02-02T10:06:35.724Z,5.94
2023-02-02T10:08:44.263Z,5.99
2023-02-02T10:10:47.119Z,6.02
2023-02-02T10:12:59.884Z,6.04
2023-02-02T10:15:17.840Z,6.08
2023-02-02T10:17:52.984Z,6.09
2023-02-02T10:20:01.119Z,6.10
2023-02-02T10:22:06.477Z,6.12
2023-02-02T10:24:17.782Z,6.15
2023-02-02T10:26:23.527Z,6.22
2023-02-02T10:28:33.882Z,6.24
2023-02-02T10:30:59.202Z,6.29
2023-02-02T10:33:06.930Z,6.32
2023-02-02T10:35:37.151Z,6.33
2023-02-02T10:38:07.436Z,6.39
2023-02-02T10:40:41.586Z,6.47
2023-02-02T10:43:20.191Z,6.59
2023-02-02T10:45:22.222Z,6.70
2023-02-02T10:47:27.964Z,6.73
2023-02-02T10:49:40.082Z,6.69
2023-02-02T10:51:50.324Z,6.65
2023-02-02T10:53:57.513Z,6.62
2023-02-02T10:56:06.935Z,6.60
2023-02-02T10:58:11.219Z,6.60
2023-02-02T11:00:39.092Z,6.59
2023-02-02T11:02:40.626Z,6.57
2023-02-02T11:05:00.565Z,6.58
2023-02-02T11:07:02.098Z,6.61
2023-02-02T11:09:04.988Z,6.64
2023-02-02T11:11:27.799Z,6.66
2023-02-02T11:13:37.102Z,6.68
2023-02-02T11:15:38.614Z,6.70
2023-02-02T11:17:40.196Z,6.70
2023-02-02T11:19:41.673Z,6.70
2023-02-02T11:21:47.626Z,6.73
2023-02-02T11:24:19.364Z,6.78
2023-02-02T11:26:22.932Z,6.87
2023-02-02T11:28:30.229Z,7.01
2023-02-02T11:30:35.827Z,7.15
2023-02-02T11:32:38.043Z,7.37
2023-02-02T11:34:39.535Z,7.59
2023-02-02T11:36:41.058Z,7.70
2023-02-02T11:38:42.525Z,7.66
2023-02-02T11:40:46.242Z,7.67
2023-02-02T11:42:48.397Z,7.64
2023-02-02T11:44:55.751Z,7.61
2023-02-02T11:46:57.505Z,7.55
2023-02-02T11:49:13.464Z,7.46
2023-02-02T11:51:23.607Z,7.41
2023-02-02T11:53:34.019Z,7.43
2023-02-02T11:55:35.688Z,7.42
2023-02-02T11:57:37.253Z,7.38
2023-02-02T11:59:43.769Z,7.35
2023-02-02T12:01:45.318Z,7.36
2023-02-02T12:03:48.613Z,7.37
2023-02-02T12:05:50.316Z,7.38
2023-02-02T12:07:51.826Z,7.39
2023-02-02T12:09:57.015Z,7.41
2023-02-02T12:12:07.516Z,7.42
2023-02-02T12:14:21.326Z,7.48
2023-02-02T12:16:37.616Z,7.48
2023-02-02T12:18:39.142Z,7.50
2023-02-02T12:21:02.624Z,7.51
2023-02-02T12:23:12.856Z,7.53
2023-02-02T12:25:14.278Z,7.51
2023-02-02T12:27:56.054Z,7.51
2023-02-02T12:30:08.808Z,7.53
2023-02-02T12:32:30.027Z,7.56
2023-02-02T12:35:05.551Z,7.59
2023-02-02T12:37:27.163Z,7.62
2023-02-02T12:39:52.705Z,7.63
2023-02-02T12:42:06.295Z,7.64
2023-02-02T12:45:04.176Z,7.72
2023-02-02T12:47:22.646Z,7.73
2023-02-02T12:49:42.366Z,7.75
2023-02-02T12:52:19.494Z,7.81
2023-02-02T12:54:54.534Z,7.83
2023-02-02T12:57:23.007Z,7.83
2023-02-02T12:59:57.864Z,7.79
2023-02-02T13:02:17.808Z,7.69
2023-02-02T13:04:26.982Z,7.66
2023-02-02T13:06:46.997Z,7.64
2023-02-02T13:08:58.671Z,7.64
2023-02-02T13:11:06.693Z,7.65
2023-02-02T13:13:16.906Z,7.74
2023-02-02T13:15:27.322Z,7.77
2023-02-02T13:17:46.632Z,7.76
2023-02-02T13:19:54.652Z,7.75
2023-02-02T13:21:59.420Z,7.71
2023-02-02T13:24:05.923Z,7.70
2023-02-02T13:26:15.771Z,7.73
2023-02-02T13:28:45.176Z,7.74
2023-02-02T13:30:49.928Z,7.73
2023-02-02T13:32:53.290Z,7.76
2023-02-02T13:35:17.844Z,7.81
2023-02-02T13:37:37.559Z,7.82
2023-02-02T13:39:45.950Z,7.85
2023-02-02T13:41:49.771Z,7.87
2023-02-02T13:44:04.938Z,7.91
2023-02-02T13:46:24.288Z,7.93
2023-02-02T13:48:31.513Z,7.97
2023-02-02T13:50:45.808Z,8.01
2023-02-02T13:52:54.916Z,8.00
2023-02-02T13:55:30.108Z,7.99
2023-02-02T13:57:59.268Z,7.98
2023-02-02T14:00:12.217Z,7.99
2023-02-02T14:02:28.442Z,7.99
2023-02-02T14:04:31.540Z,8.00
2023-02-02T14:06:56.251Z,7.99
2023-02-02T14:09:04.626Z,7.96
2023-02-02T14:11:08.123Z,7.93
2023-02-02T14:13:32.527Z,7.91
2023-02-02T14:15:39.400Z,7.87
2023-02-02T14:17:41.064Z,7.86
2023-02-02T14:19:56.487Z,7.84
2023-02-02T14:21:59.261Z,7.83
2023-02-02T14:24:22.555Z,7.83
2023-02-02T14:26:40.950Z,7.77
2023-02-02T14:28:46.163Z,7.74
2023-02-02T14:31:25.532Z,7.69
2023-02-02T14:33:38.845Z,7.65
2023-02-02T14:35:46.087Z,7.62
2023-02-02T14:37:52.929Z,7.58
2023-02-02T14:40:29.890Z,7.56
2023-02-02T14:42:58.956Z,7.55
2023-02-02T14:45:22.480Z,7.51
2023-02-02T14:47:48.328Z,7.48
2023-02-02T14:49:50.410Z,7.43
2023-02-02T14:51:55.657Z,7.44
2023-02-02T14:54:01.227Z,7.41
2023-02-02T14:56:14.443Z,7.40
2023-02-02T14:58:31.058Z,7.38
2023-02-02T15:00:35.081Z,7.36
2023-02-02T15:02:38.121Z,7.33
2023-02-02T15:04:39.670Z,7.33
2023-02-02T15:06:43.071Z,7.31
2023-02-02T15:08:44.833Z,7.31
2023-02-02T15:10:53.747Z,7.30
2023-02-02T15:13:10.855Z,7.29
2023-02-02T15:15:25.586Z,7.28
2023-02-02T15:17:48.688Z,7.23
2023-02-02T15:20:05.482Z,7.20
2023-02-02T15:22:31.443Z,7.16
2023-02-02T15:24:36.181Z,7.14
2023-02-02T15:26:42.830Z,7.13
2023-02-02T15:28:53.146Z,7.12
2023-02-02T15:31:13.285Z,7.12
2023-02-02T15:33:30.602Z,7.08
2023-02-02T15:35:32.783Z,7.05
2023-02-02T15:37:41.738Z,7.02
2023-02-02T15:39:48.950Z,7.00
2023-02-02T15:42:11.790Z,6.99
2023-02-02T15:44:21.691Z,7.00
2023-02-02T15:46:32.297Z,6.99
2023-02-02T15:48:34.788Z,6.99
2023-02-02T15:50:37.460Z,6.96
2023-02-02T15:52:47.525Z,6.95
2023-02-02T15:54:57.545Z,6.93
2023-02-02T15:57:02.936Z,6.92
2023-02-02T15:59:19.910Z,6.90
2023-02-02T16:01:25.969Z,6.91
2023-02-02T16:03:38.387Z,6.90
2023-02-02T16:05:55.842Z,6.89
2023-02-02T16:08:06.057Z,6.87
2023-02-02T16:10:08.428Z,6.87
2023-02-02T16:12:22.033Z,6.85
2023-02-02T16:14:23.868Z,6.82
2023-02-02T16:16:29.008Z,6.80
2023-02-02T16:18:30.865Z,6.78
2023-02-02T16:20:35.142Z,6.74
2023-02-02T16:22:38.028Z,6.71
2023-02-02T16:24:44.074Z,6.68
2023-02-02T16:26:45.881Z,6.65
2023-02-02T16:28:47.440Z,6.64
2023-02-02T16:30:51.765Z,6.64
2023-02-02T16:32:53.658Z,6.58
2023-02-02T16:34:55.376Z,6.53
2023-02-02T16:37:22.272Z,6.48
2023-02-02T16:39:24.172Z,6.46
2023-02-02T16:41:34.311Z,6.44
2023-02-02T16:43:38.119Z,6.40
2023-02-02T16:45:55.358Z,6.37
2023-02-02T16:48:19.686Z,6.33
2023-02-02T16:50:29.787Z,6.29
2023-02-02T16:52:32.279Z,6.28
2023-02-02T16:54:34.111Z,6.24
2023-02-02T16:56:39.955Z,6.20
2023-02-02T16:58:45.536Z,6.18
2023-02-02T17:01:14.961Z,6.14
2023-02-02T17:03:18.182Z,6.09
2023-02-02T17:05:26.114Z,6.04
2023-02-02T17:07:29.653Z,5.98
2023-02-02T17:09:37.312Z,5.92
2023-02-02T17:11:38.810Z,5.91
2023-02-02T17:13:41.619Z,5.88
2023-02-02T17:15:43.087Z,5.85
2023-02-02T17:17:47.754Z,5.82
2023-02-02T17:19:49.680Z,5.80
2023-02-02T17:21:51.354Z,5.78
2023-02-02T17:23:56.295Z,5.74
2023-02-02T17:25:58.550Z,5.72
2023-02-02T17:28:00.803Z,5.69
2023-02-02T17:30:03.703Z,5.68
2023-02-02T17:32:05.562Z,5.70
2023-02-02T17:34:16.960Z,5.71
2023-02-02T17:36:18.431Z,5.65
2023-02-02T17:38:21.505Z,5.65
2023-02-02T17:40:24.307Z,5.60
2023-02-02T17:42:30.582Z,5.58
2023-02-02T17:44:32.087Z,5.55
2023-02-02T17:46:35.083Z,5.51
2023-02-02T17:48:37.187Z,5.50
2023-02-02T17:50:39.579Z,5.47
2023-02-02T17:52:41.338Z,5.46
2023-02-02T17:54:42.786Z,5.43
2023-02-02T17:56:44.367Z,5.39
2023-02-02T17:58:45.799Z,5.35
2023-02-02T18:00:53.792Z,5.33
2023-02-02T18:03:01.381Z,5.35
2023-02-02T18:05:04.772Z,5.32
2023-02-02T18:07:07.563Z,5.31
2023-02-02T18:09:09.659Z,5.30
2023-02-02T18:11:13.458Z,5.33
2023-02-02T18:13:16.806Z,5.32
2023-02-02T18:15:18.333Z,5.29
2023-02-02T18:17:21.063Z,5.26
2023-02-02T18:19:22.565Z,5.28
2023-02-02T18:21:26.418Z,5.28
2023-02-02T18:23:28.395Z,5.30
2023-02-02T18:25:29.878Z,5.31
2023-02-02T18:27:31.603Z,5.31
2023-02-02T18:29:33.119Z,5.27
2023-02-02T18:31:34.631Z,5.24
2023-02-02T18:33:37.212Z,5.22
2023-02-02T18:35:42.564Z,5.19
2023-02-02T18:37:44.028Z,5.17
2023-02-02T18:39:45.511Z,5.17
2023-02-02T18:41:46.971Z,5.16
2023-02-02T18:43:48.516Z,5.13
2023-02-02T18:46:13.459Z,5.13
2023-02-02T18:48:16.186Z,5.12
2023-02-02T18:50:17.708Z,5.09
2023-02-02T18:52:19.687Z,5.10
2023-02-02T18:54:22.296Z,5.09
2023-02-02T18:56:23.765Z,5.08
2023-02-02T18:58:27.550Z,5.08
2023-02-02T19:00:29.062Z,5.09
2023-02-02T19:02:30.596Z,5.10
2023-02-02T19:04:32.252Z,5.13
2023-02-02T19:06:52.185Z,5.16
2023-02-02T19:08:54.771Z,5.17
2023-02-02T19:11:01.968Z,5.21
2023-02-02T19:13:19.444Z,5.23
2023-02-02T19:15:21.158Z,5.20
2023-02-02T19:17:27.974Z,5.18
2023-02-02T19:19:33.432Z,5.14
2023-02-02T19:21:34.904Z,5.11
2023-02-02T19:23:37.863Z,5.08
2023-02-02T19:25:46.272Z,5.05
2023-02-02T19:27:48.068Z,5.05
2023-02-02T19:29:52.875Z,5.07
2023-02-02T19:32:04.987Z,5.05
2023-02-02T19:34:12.369Z,5.05
2023-02-02T19:36:20.310Z,5.07
2023-02-02T19:38:22.737Z,5.10
2023-02-02T19:40:27.826Z,5.10
2023-02-02T19:42:29.513Z,5.15
2023-02-02T19:44:34.092Z,5.17
2023-02-02T19:46:42.326Z,5.15
2023-02-02T19:48:44.028Z,5.14
2023-02-02T19:50:46.551Z,5.10
2023-02-02T19:52:51.856Z,5.09
2023-02-02T19:54:53.941Z,5.08
2023-02-02T19:57:01.015Z,5.06
2023-02-02T19:59:02.683Z,5.07
2023-02-02T20:01:17.436Z,5.06
2023-02-02T20:03:20.636Z,5.05
2023-02-02T20:05:44.883Z,5.05
2023-02-02T20:07:48.050Z,5.04
2023-02-02T20:09:50.270Z,5.07
2023-02-02T20:11:53.167Z,5.07
2023-02-02T20:13:54.631Z,5.07
2023-02-02T20:16:03.566Z,5.10
2023-02-02T20:18:13.840Z,5.09
2023-02-02T20:20:26.382Z,5.09
2023-02-02T20:22:29.725Z,5.10
2023-02-02T20:24:36.879Z,5.13
2023-02-02T20:26:39.310Z,5.13
2023-02-02T20:28:45.403Z,5.15
2023-02-02T20:30:46.971Z,5.16
2023-02-02T20:32:55.054Z,5.18
2023-02-02T20:34:59.328Z,5.20
2023-02-02T20:37:12.750Z,5.22
2023-02-02T20:39:26.422Z,5.23
2023-02-02T20:41:27.941Z,5.23
2023-02-02T20:43:29.393Z,5.27
2023-02-02T20:45:30.870Z,5.29
2023-02-02T20:47:32.610Z,5.32
2023-02-02T20:49:35.146Z,5.33
2023-02-02T20:51:40.535Z,5.35
2023-02-02T20:53:42.017Z,5.39
2023-02-02T20:55:44.874Z,5.41
2023-02-02T20:57:46.416Z,5.43
2023-02-02T20:59:48.029Z,5.47
2023-02-02T21:01:50.513Z,5.48
2023-02-02T21:03:52.168Z,5.52
2023-02-02T21:05:53.730Z,5.56
2023-02-02T21:07:55.440Z,5.58
2023-02-02T21:09:56.939Z,5.60
2023-02-02T21:11:58.407Z,5.64
2023-02-02T21:14:00.019Z,5.68
2023-02-02T21:16:01.530Z,5.71
2023-02-02T21:18:03.022Z,5.74
2023-02-02T21:20:05.084Z,5.77
2023-02-02T21:22:06.553Z,5.81
2023-02-02T21:24:08.139Z,5.87
2023-02-02T21:26:09.623Z,5.91
2023-02-02T21:28:11.206Z,5.94
2023-02-02T21:30:14.092Z,5.97
2023-02-02T21:32:15.695Z,6.01
2023-02-02T21:34:20.837Z,6.06
2023-02-02T21:36:45.577Z,6.12
2023-02-02T21:38:47.135Z,6.17
2023-02-02T21:40:49.969Z,6.24
2023-02-02T21:42:51.418Z,6.30
2023-02-02T21:45:25.308Z,6.40
2023-02-02T21:47:40.168Z,6.47
2023-02-02T21:49:41.684Z,6.53
2023-02-02T21:51:43.256Z,6.59
2023-02-02T21:53:44.960Z,6.65
2023-02-02T21:55:59.438Z,6.71
2023-02-02T21:58:19.006Z,6.78
2023-02-02T22:00:25.783Z,6.86
2023-02-02T22:02:38.912Z,6.90
2023-02-02T22:04:40.448Z,6.96
2023-02-02T22:06:45.967Z,6.99
2023-02-02T22:08:48.863Z,7.01
2023-02-02T22:10:50.403Z,7.02
2023-02-02T22:12:51.877Z,7.09
2023-02-02T22:14:59.460Z,7.14
2023-02-02T22:17:00.961Z,7.17
2023-02-02T22:19:11.882Z,7.19
2023-02-02T22:21:16.101Z,7.24
2023-02-02T22:23:22.214Z,7.29
2023-02-02T22:25:30.201Z,7.30
2023-02-02T22:27:55.431Z,7.34
2023-02-02T22:30:02.399Z,7.37
2023-02-02T22:32:03.905Z,7.40
2023-02-02T22:34:05.906Z,7.40
2023-02-02T22:36:07.765Z,7.42
2023-02-02T22:38:10.213Z,7.44
2023-02-02T22:40:12.416Z,7.47
2023-02-02T22:42:13.894Z,7.49
2023-02-02T22:44:15.369Z,7.52
2023-02-02T22:46:16.913Z,7.53
2023-02-02T22:48:18.856Z,7.54
2023-02-02T22:50:31.224Z,7.55
2023-02-02T22:52:32.680Z,7.56
2023-02-02T22:54:34.201Z,7.57
2023-02-02T22:56:35.640Z,7.57
2023-02-02T22:58:37.152Z,7.57
2023-02-02T23:00:38.678Z,7.57
2023-02-02T23:02:41.316Z,7.56
2023-02-02T23:04:42.787Z,7.58
2023-02-02T23:06:44.234Z,7.61
2023-02-02T23:08:46.064Z,7.64
2023-02-02T23:10:47.610Z,7.64
2023-02-02T23:12:49.995Z,7.67
2023-02-02T23:14:51.456Z,7.69
2023-02-02T23:16:52.920Z,7.68
2023-02-02T23:18:54.402Z,7.69
2023-02-02T23:20:55.834Z,7.71
2023-02-02T23:22:57.381Z,7.73
2023-02-02T23:24:59.096Z,7.75
2023-02-02T23:27:00.668Z,7.77
2023-02-02T23:29:02.214Z,7.77
2023-02-02T23:31:03.862Z,7.78
2023-02-02T23:33:05.371Z,7.79
2023-02-02T23:35:10.341Z,7.78
2023-02-02T23:37:12.276Z,7.81
2023-02-02T23:39:13.803Z,7.80
2023-02-02T23:41:15.253Z,7.79
2023-02-02T23:43:16.749Z,7.79
2023-02-02T23:45:18.283Z,7.78
2023-02-02T23:47:19.828Z,7.79
2023-02-02T23:49:21.580Z,7.82
2023-02-02T23:51:23.306Z,7.87
2023-02-02T23:53:24.977Z,7.84
2023-02-02T23:55:26.749Z,7.87
2023-02-02T23:57:28.445Z,7.88
2023-02-02T23:59:30.214Z,7.88
